createdAt,value
2022-12-17T00:01:50.840Z,101101.53
2022-12-17T00:04:39.503Z,101104.88
2022-12-17T00:07:25.429Z,101111.03
2022-12-17T00:10:18.432Z,101107.53
2022-12-17T00:13:05.563Z,101106.66
2022-12-17T00:16:00.729Z,101098.09
2022-12-17T00:18:47.979Z,101092.94
2022-12-17T00:21:35.650Z,101091.53
2022-12-17T00:24:21.068Z,101087.72
2022-12-17T00:27:06.943Z,101088.41
2022-12-17T00:29:54.164Z,101083.19
2022-12-17T00:32:42.290Z,101091.09
2022-12-17T00:35:29.848Z,101084.22
2022-12-17T00:38:15.974Z,101079.72
2022-12-17T00:41:08.536Z,101075.19
2022-12-17T00:43:54.459Z,101069.28
2022-12-17T00:46:49.515Z,101062.50
2022-12-17T00:49:36.652Z,101068.59
2022-12-17T00:52:24.025Z,101066.97
2022-12-17T00:55:13.959Z,101073.88
2022-12-17T00:58:05.559Z,101080.84
2022-12-17T01:00:52.795Z,101073.88
2022-12-17T01:03:46.068Z,101076.38
2022-12-17T01:06:31.838Z,101072.84
2022-12-17T01:09:21.519Z,101080.69
2022-12-17T01:12:13.266Z,101082.69
2022-12-17T01:15:03.809Z,101086.16
2022-12-17T01:17:49.832Z,101093.28
2022-12-17T01:20:35.502Z,101095.16
2022-12-17T01:23:21.736Z,101098.50
2022-12-17T01:26:18.770Z,101095.00
2022-12-17T01:29:05.510Z,101101.63
2022-12-17T01:31:52.530Z,101101.63
2022-12-17T01:34:39.689Z,101097.97
2022-12-17T01:37:25.917Z,101090.88
2022-12-17T01:40:11.670Z,101096.81
2022-12-17T01:43:01.700Z,101098.50
2022-12-17T01:45:55.418Z,101088.78
2022-12-17T01:48:43.599Z,101103.47
2022-12-17T01:51:29.923Z,101106.88
2022-12-17T01:54:16.908Z,101096.31
2022-12-17T01:57:03.149Z,101099.84
2022-12-17T02:00:01.777Z,101104.38
2022-12-17T02:02:47.910Z,101102.50
2022-12-17T02:05:33.930Z,101095.81
2022-12-17T02:08:24.977Z,101104.53
2022-12-17T02:11:19.383Z,101099.16
2022-12-17T02:14:29.322Z,101104.63
2022-12-17T02:17:21.963Z,101110.38
2022-12-17T02:20:19.480Z,101114.31
2022-12-17T02:23:17.674Z,101110.84
2022-12-17T02:26:10.885Z,101124.91
2022-12-17T02:32:12.951Z,101115.50
2022-12-17T02:35:37.803Z,101115.59
2022-12-17T02:38:48.850Z,101116.84
2022-12-17T02:48:41.239Z,101126.06
2022-12-17T02:51:27.565Z,101121.56
2022-12-17T02:57:12.518Z,101111.53
2022-12-17T02:59:59.868Z,101128.31
2022-12-17T03:02:47.445Z,101114.50
2022-12-17T03:05:44.897Z,101117.31
2022-12-17T03:08:31.963Z,101115.59
2022-12-17T03:11:19.090Z,101110.47
2022-12-17T03:14:07.318Z,101114.66
2022-12-17T03:16:54.573Z,101114.81
2022-12-17T03:19:40.281Z,101105.03
2022-12-17T03:22:25.927Z,101111.91
2022-12-17T03:25:18.401Z,101120.03
2022-12-17T03:28:04.500Z,101112.81
2022-12-17T03:30:50.145Z,101111.09
2022-12-17T03:33:39.615Z,101106.41
2022-12-17T03:36:26.657Z,101099.41
2022-12-17T03:39:13.977Z,101099.50
2022-12-17T03:42:09.372Z,101099.31
2022-12-17T03:44:55.691Z,101108.81
2022-12-17T03:47:41.335Z,101102.59
2022-12-17T03:50:27.938Z,101096.56
2022-12-17T03:53:14.160Z,101099.00
2022-12-17T03:55:59.713Z,101093.03
2022-12-17T03:58:53.460Z,101092.38
2022-12-17T04:01:46.634Z,101094.19
2022-12-17T04:04:49.041Z,101094.88
2022-12-17T04:07:46.930Z,101093.03
2022-12-17T04:11:05.640Z,101094.88
2022-12-17T04:13:53.030Z,101089.75
2022-12-17T04:16:38.648Z,101085.28
2022-12-17T04:19:24.291Z,101088.88
2022-12-17T04:22:10.569Z,101089.66
2022-12-17T04:24:58.159Z,101100.03
2022-12-17T04:27:45.448Z,101096.81
2022-12-17T04:30:31.518Z,101090.84
2022-12-17T04:33:17.602Z,101088.13
2022-12-17T04:36:03.889Z,101089.03
2022-12-17T04:38:49.970Z,101093.28
2022-12-17T04:41:37.265Z,101096.53
2022-12-17T04:44:23.350Z,101097.38
2022-12-17T04:47:11.089Z,101093.81
2022-12-17T04:49:59.341Z,101092.72
2022-12-17T04:52:45.319Z,101097.16
2022-12-17T04:55:31.392Z,101086.56
2022-12-17T04:58:22.280Z,101097.00
2022-12-17T05:01:10.583Z,101088.41
2022-12-17T05:03:57.972Z,101081.44
2022-12-17T05:06:44.879Z,101083.19
2022-12-17T05:09:31.958Z,101088.41
2022-12-17T05:12:17.965Z,101087.69
2022-12-17T05:15:05.046Z,101095.41
2022-12-17T05:17:50.787Z,101091.09
2022-12-17T05:20:37.072Z,101091.31
2022-12-17T05:23:27.280Z,101082.63
2022-12-17T05:26:21.870Z,101088.41
2022-12-17T05:29:12.456Z,101085.13
2022-12-17T05:32:03.309Z,101104.91
2022-12-17T05:34:48.699Z,101087.41
2022-12-17T05:37:34.797Z,101090.13
2022-12-17T05:40:20.933Z,101092.78
2022-12-17T05:43:44.914Z,101097.22
2022-12-17T05:46:40.858Z,101091.72
2022-12-17T05:49:30.561Z,101091.03
2022-12-17T05:52:16.829Z,101079.81
2022-12-17T05:55:03.030Z,101087.75
2022-12-17T05:57:54.575Z,101090.34
2022-12-17T06:00:42.162Z,101092.16
2022-12-17T06:03:28.385Z,101094.47
2022-12-17T06:06:17.034Z,101094.44
2022-12-17T06:09:02.804Z,101097.00
2022-12-17T06:11:48.793Z,101087.34
2022-12-17T06:14:34.610Z,101094.38
2022-12-17T06:17:20.581Z,101095.28
2022-12-17T06:20:07.134Z,101101.34
2022-12-17T06:22:54.559Z,101111.84
2022-12-17T06:25:40.568Z,101118.06
2022-12-17T06:28:26.838Z,101106.81
2022-12-17T06:31:14.585Z,101102.13
2022-12-17T06:34:00.489Z,101106.56
2022-12-17T06:36:46.088Z,101109.19
2022-12-17T06:39:33.470Z,101108.16
2022-12-17T06:42:20.565Z,101103.72
2022-12-17T06:45:09.379Z,101111.44
2022-12-17T06:48:06.139Z,101105.91
2022-12-17T06:57:22.551Z,101105.75
2022-12-17T07:00:10.545Z,101103.19
2022-12-17T07:03:14.477Z,101106.50
2022-12-17T07:06:01.002Z,101111.88
2022-12-17T07:08:47.139Z,101105.75
2022-12-17T07:11:33.257Z,101099.88
2022-12-17T07:14:20.236Z,101095.63
2022-12-17T07:17:06.179Z,101103.19
2022-12-17T07:19:53.509Z,101095.63
2022-12-17T07:22:39.501Z,101103.41
2022-12-17T07:25:26.019Z,101099.09
2022-12-17T07:28:12.966Z,101099.03
2022-12-17T07:31:00.889Z,101110.28
2022-12-17T07:33:47.001Z,101111.88
2022-12-17T07:36:34.808Z,101113.03
2022-12-17T07:39:20.871Z,101123.63
2022-12-17T07:42:07.308Z,101115.75
2022-12-17T07:44:54.001Z,101121.88
2022-12-17T07:47:41.922Z,101127.16
2022-12-17T07:50:39.862Z,101123.81
2022-12-17T07:53:25.812Z,101118.75
2022-12-17T07:56:14.523Z,101127.59
2022-12-17T07:59:00.296Z,101129.28
2022-12-17T08:01:47.602Z,101117.78
2022-12-17T08:04:35.899Z,101133.22
2022-12-17T08:07:21.582Z,101132.31
2022-12-17T08:10:07.232Z,101139.13
2022-12-17T08:12:52.957Z,101145.19
2022-12-17T08:15:39.139Z,101142.56
2022-12-17T08:18:26.885Z,101140.97
2022-12-17T08:21:15.859Z,101144.59
2022-12-17T08:24:02.815Z,101132.69
2022-12-17T08:26:48.615Z,101147.53
2022-12-17T08:29:34.588Z,101142.38
2022-12-17T08:32:20.519Z,101154.59
2022-12-17T08:35:06.366Z,101145.25
2022-12-17T08:37:53.689Z,101146.16
2022-12-17T08:40:40.961Z,101152.31
2022-12-17T08:43:28.909Z,101153.88
2022-12-17T08:46:15.137Z,101151.13
2022-12-17T08:49:01.387Z,101152.81
2022-12-17T08:51:47.932Z,101158.94
2022-12-17T08:54:35.323Z,101157.16
2022-12-17T08:57:31.557Z,101164.81
2022-12-17T09:00:18.341Z,101175.03
2022-12-17T09:03:04.839Z,101170.50
2022-12-17T09:05:50.679Z,101165.06
2022-12-17T09:08:36.821Z,101171.19
2022-12-17T09:11:24.967Z,101166.94
2022-12-17T09:14:11.081Z,101174.59
2022-12-17T09:16:56.917Z,101174.66
2022-12-17T09:19:43.373Z,101178.97
2022-12-17T09:22:29.278Z,101172.88
2022-12-17T09:25:15.147Z,101182.53
2022-12-17T09:28:08.578Z,101186.09
2022-12-17T09:30:54.433Z,101198.28
2022-12-17T09:33:40.548Z,101201.53
2022-12-17T09:36:28.456Z,101208.97
2022-12-17T09:39:14.665Z,101210.72
2022-12-17T09:42:11.227Z,101217.00
2022-12-17T09:45:11.589Z,101222.38
2022-12-17T09:48:13.555Z,101221.78
2022-12-17T09:50:59.407Z,101226.31
2022-12-17T09:53:55.271Z,101229.88
2022-12-17T09:56:45.379Z,101221.25
2022-12-17T09:59:39.924Z,101223.81
2022-12-17T10:02:35.939Z,101231.75
2022-12-17T10:05:26.166Z,101226.41
2022-12-17T10:08:13.294Z,101225.56
2022-12-17T10:11:03.909Z,101230.53
2022-12-17T10:13:49.913Z,101226.06
2022-12-17T10:16:43.597Z,101226.78
2022-12-17T10:19:43.463Z,101232.91
2022-12-17T10:22:31.600Z,101234.41
2022-12-17T10:25:21.453Z,101240.06
2022-12-17T10:28:07.145Z,101240.75
2022-12-17T10:30:53.334Z,101245.00
2022-12-17T10:33:40.538Z,101241.38
2022-12-17T10:36:40.862Z,101242.41
2022-12-17T10:39:35.391Z,101244.84
2022-12-17T10:42:30.167Z,101252.56
2022-12-17T10:45:21.375Z,101248.94
2022-12-17T10:48:07.489Z,101244.66
2022-12-17T10:51:00.084Z,101246.72
2022-12-17T10:53:47.537Z,101241.72
2022-12-17T11:05:36.970Z,101221.06
2022-12-17T11:08:24.031Z,101225.38
2022-12-17T11:11:12.490Z,101219.50
2022-12-17T11:14:04.372Z,101221.25
2022-12-17T11:16:54.132Z,101219.00
2022-12-17T11:19:53.330Z,101211.50
2022-12-17T11:22:44.824Z,101223.63
2022-12-17T11:25:45.267Z,101214.06
2022-12-17T11:28:39.599Z,101208.63
2022-12-17T11:31:46.880Z,101214.53
2022-12-17T11:34:42.755Z,101208.66
2022-12-17T11:37:36.707Z,101209.50
2022-12-17T11:40:34.356Z,101207.50
2022-12-17T11:43:28.721Z,101207.22
2022-12-17T11:46:25.372Z,101203.78
2022-12-17T11:49:20.041Z,101207.16
2022-12-17T11:52:15.156Z,101191.13
2022-12-17T11:55:09.820Z,101187.28
2022-12-17T11:58:04.721Z,101180.19
2022-12-17T12:00:58.783Z,101172.00
2022-12-17T12:03:53.705Z,101161.81
2022-12-17T12:06:53.665Z,101161.31
2022-12-17T12:09:47.554Z,101162.50
2022-12-17T12:12:44.278Z,101163.91
2022-12-17T12:15:43.740Z,101166.66
2022-12-17T12:18:40.685Z,101154.38
2022-12-17T12:21:48.662Z,101144.72
2022-12-17T12:24:50.475Z,101136.53
2022-12-17T12:27:45.321Z,101142.00
2022-12-17T12:30:44.320Z,101132.50
2022-12-17T12:33:39.994Z,101133.38
2022-12-17T12:36:29.717Z,101130.75
2022-12-17T12:39:18.481Z,101131.50
2022-12-17T12:42:12.561Z,101129.47
2022-12-17T12:45:09.106Z,101124.06
2022-12-17T12:48:04.687Z,101121.09
2022-12-17T12:51:00.958Z,101122.44
2022-12-17T12:53:47.179Z,101115.59
2022-12-17T12:56:51.092Z,101118.78
2022-12-17T12:59:45.317Z,101107.84
2022-12-17T13:02:43.584Z,101111.81
2022-12-17T13:05:35.058Z,101112.09
2022-12-17T13:08:18.241Z,101112.09
2022-12-17T13:10:48.079Z,101118.97
2022-12-17T13:13:35.488Z,101119.81
2022-12-17T13:16:09.663Z,101115.66
2022-12-17T13:18:41.267Z,101112.25
2022-12-17T13:21:27.635Z,101121.41
2022-12-17T13:23:56.509Z,101127.31
2022-12-17T13:26:43.598Z,101127.75
2022-12-17T13:29:30.257Z,101123.13
2022-12-17T13:32:09.649Z,101126.00
2022-12-17T13:35:17.296Z,101129.38
2022-12-17T13:37:57.305Z,101132.88
2022-12-17T13:40:41.814Z,101125.03
2022-12-17T13:43:19.142Z,101123.03
2022-12-17T13:45:52.172Z,101125.66
2022-12-17T13:48:25.652Z,101116.09
2022-12-17T13:51:01.309Z,101115.50
2022-12-17T13:53:31.143Z,101116.56
2022-12-17T13:56:02.079Z,101101.31
2022-12-17T13:58:32.878Z,101100.94
2022-12-17T14:01:15.711Z,101095.47
2022-12-17T14:04:05.915Z,101105.97
2022-12-17T14:06:42.831Z,101111.59
2022-12-17T14:09:18.536Z,101109.66
2022-12-17T14:12:04.426Z,101117.38
2022-12-17T14:14:35.855Z,101112.75
2022-12-17T14:17:09.074Z,101114.06
2022-12-17T14:19:44.101Z,101113.81
2022-12-17T14:22:20.791Z,101113.03
2022-12-17T14:24:55.705Z,101104.22
2022-12-17T14:27:35.112Z,101106.38
2022-12-17T14:30:23.790Z,101103.75
2022-12-17T14:32:59.920Z,101100.84
2022-12-17T14:35:31.235Z,101099.28
2022-12-17T14:38:05.153Z,101082.09
2022-12-17T14:40:37.806Z,101091.13
2022-12-17T14:43:10.363Z,101082.88
2022-12-17T14:45:59.377Z,101078.53
2022-12-17T14:48:50.307Z,101082.63
2022-12-17T14:51:25.842Z,101090.53
2022-12-17T14:54:22.353Z,101102.31
2022-12-17T14:57:21.329Z,101104.84
2022-12-17T15:00:10.728Z,101104.44
2022-12-17T15:02:39.657Z,101101.28
2022-12-17T15:05:16.538Z,101103.41
2022-12-17T15:07:46.524Z,101103.50
2022-12-17T15:10:21.065Z,101114.75
2022-12-17T15:12:51.990Z,101118.28
2022-12-17T15:15:22.244Z,101122.06
2022-12-17T15:17:58.774Z,101123.19
2022-12-17T15:20:29.629Z,101115.41
2022-12-17T15:23:02.613Z,101111.22
2022-12-17T15:25:31.443Z,101112.28
2022-12-17T15:28:01.297Z,101116.06
2022-12-17T15:30:29.954Z,101121.50
2022-12-17T15:32:58.662Z,101129.56
2022-12-17T15:35:29.220Z,101124.63
2022-12-17T15:38:03.813Z,101118.81
2022-12-17T15:40:32.504Z,101120.78
2022-12-17T15:43:13.256Z,101111.59
2022-12-17T15:45:45.329Z,101116.19
2022-12-17T15:48:17.793Z,101116.47
2022-12-17T15:50:50.891Z,101122.75
2022-12-17T15:53:19.496Z,101124.34
2022-12-17T15:55:49.408Z,101119.56
2022-12-17T15:58:19.473Z,101120.63
2022-12-17T16:00:48.039Z,101121.53
2022-12-17T16:03:22.793Z,101117.50
2022-12-17T16:05:53.557Z,101119.59
2022-12-17T16:08:24.360Z,101127.56
2022-12-17T16:10:55.191Z,101138.31
2022-12-17T16:13:25.841Z,101135.03
2022-12-17T16:16:03.605Z,101140.38
2022-12-17T16:18:33.911Z,101139.75
2022-12-17T16:21:09.240Z,101149.63
2022-12-17T16:23:41.073Z,101149.47
2022-12-17T16:26:12.241Z,101157.56
2022-12-17T16:28:52.951Z,101157.09
2022-12-17T16:31:27.970Z,101167.81
2022-12-17T16:33:57.733Z,101164.88
2022-12-17T16:36:30.083Z,101166.66
2022-12-17T16:38:59.285Z,101162.53
2022-12-17T16:41:29.262Z,101158.81
2022-12-17T16:43:58.921Z,101152.06
2022-12-17T16:46:31.179Z,101156.66
2022-12-17T16:49:07.093Z,101149.09
2022-12-17T16:51:41.140Z,101155.44
2022-12-17T16:54:12.059Z,101148.56
2022-12-17T16:56:42.258Z,101147.25
2022-12-17T16:59:13.369Z,101154.53
2022-12-17T17:01:48.015Z,101171.28
2022-12-17T17:04:18.520Z,101167.16
2022-12-17T17:07:08.537Z,101160.59
2022-12-17T17:09:41.252Z,101166.84
2022-12-17T17:12:12.057Z,101160.97
2022-12-17T17:14:40.994Z,101163.91
2022-12-17T17:17:11.344Z,101166.72
2022-12-17T17:19:42.532Z,101171.94
2022-12-17T17:22:12.783Z,101171.19
2022-12-17T17:24:48.546Z,101184.47
2022-12-17T17:27:25.719Z,101177.81
2022-12-17T17:29:57.264Z,101185.00
2022-12-17T17:32:29.993Z,101191.22
2022-12-17T17:34:58.621Z,101192.22
2022-12-17T17:37:29.522Z,101184.47
2022-12-17T17:39:58.460Z,101181.88
2022-12-17T17:42:27.274Z,101181.94
2022-12-17T17:44:59.711Z,101172.41
2022-12-17T17:47:30.317Z,101169.94
2022-12-17T17:50:00.996Z,101167.50
2022-12-17T17:52:32.040Z,101157.25
2022-12-17T17:55:01.870Z,101155.53
2022-12-17T17:57:31.678Z,101155.53
2022-12-17T18:00:03.072Z,101151.16
2022-12-17T18:02:31.920Z,101157.31
2022-12-17T18:05:01.663Z,101161.84
2022-12-17T18:07:32.023Z,101156.72
2022-12-17T18:10:01.164Z,101160.00
2022-12-17T18:12:47.165Z,101161.94
2022-12-17T18:15:19.279Z,101162.25
2022-12-17T18:17:51.555Z,101170.06
2022-12-17T18:20:23.099Z,101166.59
2022-12-17T18:23:04.345Z,101175.44
2022-12-17T18:25:37.478Z,101170.28
2022-12-17T18:28:17.504Z,101172.91
2022-12-17T18:30:46.191Z,101167.59
2022-12-17T18:33:23.504Z,101176.19
2022-12-17T18:35:54.050Z,101178.75
2022-12-17T18:38:24.151Z,101183.94
2022-12-17T18:40:52.768Z,101185.94
2022-12-17T18:43:24.025Z,101181.63
2022-12-17T18:45:53.393Z,101182.53
2022-12-17T18:48:22.043Z,101185.25
2022-12-17T18:50:50.827Z,101186.19
2022-12-17T18:53:20.403Z,101181.28
2022-12-17T18:55:51.600Z,101184.63
2022-12-17T18:58:21.261Z,101185.31
2022-12-17T19:00:51.101Z,101176.72
2022-12-17T19:03:20.944Z,101174.44
2022-12-17T19:05:54.088Z,101170.22
2022-12-17T19:08:25.463Z,101172.91
2022-12-17T19:10:56.498Z,101177.13
2022-12-17T19:13:25.070Z,101178.72
2022-12-17T19:15:53.750Z,101178.81
2022-12-17T19:18:23.233Z,101176.38
2022-12-17T19:20:58.581Z,101180.88
2022-12-17T19:23:33.021Z,101179.28
2022-12-17T19:26:15.723Z,101174.19
2022-12-17T19:28:47.367Z,101186.38
2022-12-17T19:31:17.097Z,101189.84
2022-12-17T19:33:45.959Z,101185.47
2022-12-17T19:36:18.731Z,101180.44
2022-12-17T19:38:52.708Z,101175.22
2022-12-17T19:41:25.285Z,101180.44
2022-12-17T19:43:56.683Z,101182.41
2022-12-17T19:46:26.590Z,101175.59
2022-12-17T19:48:57.377Z,101184.31
2022-12-17T19:51:29.211Z,101174.03
2022-12-17T19:54:03.442Z,101175.78
2022-12-17T19:56:42.521Z,101166.22
2022-12-17T19:59:14.079Z,101157.34
2022-12-17T20:01:48.715Z,101154.81
2022-12-17T20:04:18.233Z,101159.16
2022-12-17T20:06:57.569Z,101160.50
2022-12-17T20:09:26.623Z,101162.19
2022-12-17T20:11:57.740Z,101159.66
2022-12-17T20:14:26.922Z,101166.53
2022-12-17T20:16:58.444Z,101163.25
2022-12-17T20:19:31.271Z,101166.00
2022-12-17T20:22:02.531Z,101168.53
2022-12-17T20:24:32.208Z,101153.91
2022-12-17T20:27:03.821Z,101148.91
2022-12-17T20:29:34.414Z,101145.19
2022-12-17T20:32:09.264Z,101146.31
2022-12-17T20:34:37.957Z,101141.19
2022-12-17T20:37:06.644Z,101148.09
2022-12-17T20:39:36.211Z,101136.66
2022-12-17T20:42:11.459Z,101136.56
2022-12-17T20:44:41.872Z,101138.31
2022-12-17T20:47:10.664Z,101134.66
2022-12-17T20:49:39.490Z,101127.72
2022-12-17T20:52:08.110Z,101119.75
2022-12-17T20:54:39.000Z,101117.81
2022-12-17T20:57:09.095Z,101123.78
2022-12-17T20:59:37.766Z,101129.69
2022-12-17T21:02:06.521Z,101124.56
2022-12-17T21:04:35.207Z,101125.72
2022-12-17T21:07:05.874Z,101129.22
2022-12-17T21:09:34.798Z,101131.84
2022-12-17T21:12:06.106Z,101127.63
2022-12-17T21:14:37.442Z,101134.53
2022-12-17T21:17:07.351Z,101138.13
2022-12-17T21:19:36.946Z,101140.03
2022-12-17T21:22:06.598Z,101153.22
2022-12-17T21:24:37.621Z,101148.09
2022-12-17T21:27:11.157Z,101153.00
2022-12-17T21:29:50.555Z,101138.81
2022-12-17T21:32:19.374Z,101139.97
2022-12-17T21:34:48.497Z,101145.72
2022-12-17T21:37:17.385Z,101154.78
2022-12-17T21:39:47.245Z,101153.69
2022-12-17T21:42:31.680Z,101160.41
2022-12-17T21:45:01.679Z,101163.16
2022-12-17T21:47:30.405Z,101170.13
2022-12-17T21:49:59.078Z,101173.47
2022-12-17T21:52:27.887Z,101168.22
2022-12-17T21:54:56.798Z,101163.72
2022-12-17T21:57:26.432Z,101161.84
2022-12-17T21:59:58.941Z,101159.47
2022-12-17T22:02:29.233Z,101149.84
2022-12-17T22:04:59.232Z,101154.19
2022-12-17T22:07:40.989Z,101150.00
2022-12-17T22:10:23.188Z,101154.59
2022-12-17T22:13:23.670Z,101140.03
2022-12-17T22:15:52.354Z,101144.75
2022-12-17T22:18:22.581Z,101146.59
2022-12-17T22:20:59.774Z,101145.94
2022-12-17T22:23:28.619Z,101133.03
2022-12-17T22:25:57.910Z,101125.47
2022-12-17T22:28:26.549Z,101130.84
2022-12-17T22:31:12.508Z,101129.97
2022-12-17T22:34:50.197Z,101136.97
2022-12-17T22:38:45.442Z,101126.63
2022-12-17T22:43:28.756Z,101120.72
2022-12-17T22:44:44.171Z,101122.50
2022-12-17T22:45:24.497Z,101119.06
2022-12-17T22:47:53.706Z,101128.59
2022-12-17T22:50:27.722Z,101120.81
2022-12-17T22:52:59.818Z,101103.59
2022-12-17T22:55:30.723Z,101111.72
2022-12-17T22:57:59.999Z,101110.13
2022-12-17T23:00:33.830Z,101109.47
2022-12-17T23:03:02.626Z,101107.81
2022-12-17T23:05:33.503Z,101111.94
2022-12-17T23:08:02.219Z,101106.03
2022-12-17T23:10:31.238Z,101103.94
2022-12-17T23:13:02.940Z,101098.25
2022-12-17T23:15:36.573Z,101095.78
2022-12-17T23:18:09.049Z,101089.59
2022-12-17T23:20:39.454Z,101087.22
2022-12-17T23:23:10.167Z,101089.22
2022-12-17T23:25:39.999Z,101081.56
2022-12-17T23:28:10.710Z,101077.34
2022-12-17T23:30:40.569Z,101078.44
2022-12-17T23:33:10.527Z,101078.44
2022-12-17T23:35:42.914Z,101075.75
2022-12-17T23:38:13.488Z,101080.03
2022-12-17T23:40:45.030Z,101076.53
2022-12-17T23:43:17.509Z,101067.03
2022-12-17T23:45:47.700Z,101054.09
2022-12-17T23:48:17.360Z,101047.09
2022-12-17T23:50:47.379Z,101047.34
2022-12-17T23:53:15.989Z,101051.72
2022-12-17T23:55:47.504Z,101045.66
2022-12-17T23:58:16.409Z,101041.63
